Time;durP1;ratioP1;P1;durP2;ratioP2;P2;SDS_P1;SDS_P2;PMS_P1;PMS_P2;Temp;Humidity;BMP_temperature;BMP_pressure;BME280_temperature;BME280_humidity;BME280_pressure;Samples;Min_cycle;Max_cycle;Signal;HPM_P1;HPM_P2
2023/06/15 00:01:30;;;;;;;4.03;3.05;;;;;;;16.30;100.00;100949.34;6239087;28;20048;-87
2023/06/15 00:04:32;;;;;;;5.60;3.70;;;;;;;16.33;100.00;100946.44;6238433;28;20308;-86
2023/06/15 00:07:34;;;;;;;5.43;3.55;;;;;;;16.40;100.00;100951.06;6235743;28;20490;-86
2023/06/15 00:10:36;;;;;;;7.07;3.30;;;;;;;16.42;100.00;100952.56;6239100;28;20049;-87
2023/06/15 00:13:38;;;;;;;4.47;3.28;;;;;;;16.43;100.00;100951.59;6242468;28;20476;-87
2023/06/15 00:16:41;;;;;;;7.53;3.38;;;;;;;16.42;100.00;100955.19;6240286;28;20411;-86
2023/06/15 00:19:46;;;;;;;5.30;3.25;;;;;;;16.36;100.00;100955.75;6239787;28;20041;-86
2023/06/15 00:22:49;;;;;;;3.30;2.80;;;;;;;16.29;100.00;100954.72;6236977;28;20048;-86
2023/06/15 00:25:51;;;;;;;5.85;3.17;;;;;;;16.26;100.00;100955.81;6235922;28;20034;-86
2023/06/15 00:28:55;;;;;;;5.32;3.30;;;;;;;16.18;100.00;100952.31;6238770;28;20077;-86
2023/06/15 00:31:57;;;;;;;4.10;3.40;;;;;;;16.08;100.00;100952.38;6238441;28;20144;-86
2023/06/15 00:34:59;;;;;;;6.32;3.80;;;;;;;15.96;100.00;100958.78;6237781;28;20037;-86
2023/06/15 00:38:00;;;;;;;7.55;3.83;;;;;;;15.87;100.00;100953.44;6235681;28;20048;-86
2023/06/15 00:41:02;;;;;;;6.53;3.80;;;;;;;15.86;100.00;100964.03;6237420;28;20041;-86
2023/06/15 00:44:04;;;;;;;7.82;3.97;;;;;;;15.81;100.00;100959.25;6237733;28;20041;-86
2023/06/15 00:47:06;;;;;;;7.68;3.60;;;;;;;15.76;100.00;100960.66;6236829;28;20323;-86
2023/06/15 00:50:10;;;;;;;7.32;3.33;;;;;;;15.74;100.00;100959.97;6237404;28;20092;-86
2023/06/15 00:53:12;;;;;;;3.47;3.15;;;;;;;15.66;100.00;100964.09;6236594;28;20041;-86
2023/06/15 00:56:17;;;;;;;5.88;3.47;;;;;;;15.63;100.00;100963.56;6246590;28;20070;-87
2023/06/15 00:59:19;;;;;;;5.70;3.58;;;;;;;15.57;100.00;100954.50;6244343;28;20045;-86
2023/06/15 01:02:24;;;;;;;6.13;3.50;;;;;;;15.53;100.00;100958.38;6245033;28;20037;-87
2023/06/15 01:05:34;;;;;;;5.57;3.47;;;;;;;15.48;100.00;100952.75;6222138;28;20041;-86
2023/06/15 01:08:40;;;;;;;5.70;3.40;;;;;;;15.45;100.00;100955.63;6235057;28;20080;-86
2023/06/15 01:11:42;;;;;;;5.03;3.53;;;;;;;15.39;100.00;100954.44;6246551;28;20140;-86
2023/06/15 01:14:45;;;;;;;4.40;3.25;;;;;;;15.35;100.00;100957.44;6240559;28;20053;-86
2023/06/15 01:17:53;;;;;;;6.38;3.70;;;;;;;15.31;100.00;100956.13;6242108;28;20041;-87
2023/06/15 01:20:56;;;;;;;6.88;3.78;;;;;;;15.24;100.00;100959.28;6241095;28;20053;-86
2023/06/15 01:24:23;;;;;;;5.78;3.40;;;;;;;15.21;100.00;100956.13;6237767;28;20041;-87
2023/06/15 01:27:26;;;;;;;4.65;3.40;;;;;;;15.16;100.00;100955.72;6229430;28;20053;-86
2023/06/15 01:30:34;;;;;;;5.00;3.45;;;;;;;15.08;100.00;100954.66;6236428;28;20606;-86
2023/06/15 01:33:51;;;;;;;5.97;3.63;;;;;;;15.01;100.00;100950.94;6225418;28;20042;-86
2023/06/15 01:36:52;;;;;;;5.97;3.83;;;;;;;14.97;100.00;100959.19;6234737;28;20107;-87
2023/06/15 01:39:58;;;;;;;7.47;3.63;;;;;;;14.94;100.00;100954.25;6229288;28;20049;-86
2023/06/15 01:43:01;;;;;;;5.10;3.28;;;;;;;14.88;100.00;100949.56;6236332;28;20049;-86
2023/06/15 01:46:05;;;;;;;8.05;3.92;;;;;;;14.86;100.00;100958.38;6261397;28;20467;-86
2023/06/15 01:49:07;;;;;;;4.53;3.65;;;;;;;14.84;100.00;100962.91;6234231;28;20038;-86
2023/06/15 01:52:09;;;;;;;5.97;3.45;;;;;;;14.83;100.00;100957.81;6236594;28;20053;-86
2023/06/15 01:55:11;;;;;;;4.00;3.47;;;;;;;14.83;100.00;100952.59;6240744;28;20086;-86
2023/06/15 01:58:15;;;;;;;4.53;3.60;;;;;;;14.85;100.00;100958.50;6255178;28;20414;-86
2023/06/15 02:01:17;;;;;;;5.72;3.63;;;;;;;14.84;100.00;100951.66;6224124;28;20116;-87
2023/06/15 02:04:19;;;;;;;5.43;3.25;;;;;;;14.83;100.00;100950.00;6236558;28;20041;-86
2023/06/15 02:07:24;;;;;;;4.43;3.80;;;;;;;14.81;100.00;100941.50;6252019;28;20040;-86
2023/06/15 02:10:26;;;;;;;6.05;3.53;;;;;;;14.80;100.00;100948.47;6240523;28;20657;-86
2023/06/15 02:13:27;;;;;;;5.25;3.55;;;;;;;14.77;100.00;100942.75;6235257;28;20124;-87
2023/06/15 02:16:30;;;;;;;5.22;4.15;;;;;;;14.76;100.00;100944.53;6249068;28;20184;-86
2023/06/15 02:19:34;;;;;;;4.43;3.70;;;;;;;14.72;100.00;100943.16;6238314;28;20669;-86
2023/06/15 02:22:39;;;;;;;8.25;5.28;;;;;;;14.72;100.00;100937.94;6234001;28;20056;-87
2023/06/15 02:25:41;;;;;;;7.05;4.28;;;;;;;14.70;100.00;100944.25;6223193;28;20069;-86
2023/06/15 02:28:44;;;;;;;5.13;3.75;;;;;;;14.70;100.00;100950.28;6251303;28;20609;-86
2023/06/15 02:31:45;;;;;;;5.78;3.80;;;;;;;14.67;100.00;100950.56;6229242;28;20041;-86
2023/06/15 02:34:47;;;;;;;6.00;3.35;;;;;;;14.63;100.00;100942.22;6236425;28;20136;-87
2023/06/15 02:37:49;;;;;;;7.63;3.60;;;;;;;14.61;100.00;100946.72;6236045;28;20069;-87
2023/06/15 02:40:51;;;;;;;5.32;3.47;;;;;;;14.60;100.00;100950.28;6237432;28;20041;-87
2023/06/15 02:43:57;;;;;;;5.63;3.72;;;;;;;14.58;100.00;100953.97;6247905;28;20144;-86
2023/06/15 02:46:58;;;;;;;4.70;3.70;;;;;;;14.55;100.00;100957.69;6250621;28;20781;-86
2023/06/15 02:50:06;;;;;;;6.55;3.47;;;;;;;14.57;100.00;100952.34;6235164;28;20477;-86
2023/06/15 02:53:12;;;;;;;5.60;3.58;;;;;;;14.56;100.00;100950.72;6223508;28;20053;-86
2023/06/15 02:56:18;;;;;;;5.25;3.97;;;;;;;14.56;100.00;100958.53;6248664;28;20487;-86
2023/06/15 02:59:25;;;;;;;6.70;4.20;;;;;;;14.56;100.00;100959.34;6250867;28;20052;-86
2023/06/15 03:02:38;;;;;;;5.63;3.50;;;;;;;14.53;100.00;100956.13;6254731;28;20053;-87
2023/06/15 03:05:40;;;;;;;7.68;4.07;;;;;;;14.50;100.00;100956.41;6253559;28;20041;-86
2023/06/15 03:08:44;;;;;;;7.10;4.10;;;;;;;14.46;100.00;100962.84;6235437;28;20049;-86
2023/06/15 03:12:03;;;;;;;6.47;3.95;;;;;;;14.48;100.00;100966.13;6244207;28;20103;-86
2023/06/15 03:15:11;;;;;;;7.28;3.80;;;;;;;14.50;100.00;100966.84;6236739;28;20085;-86
2023/06/15 03:18:15;;;;;;;6.68;3.60;;;;;;;14.45;100.00;100972.44;6247204;28;20178;-86
2023/06/15 03:21:20;;;;;;;10.38;3.85;;;;;;;14.44;100.00;100970.81;6251413;28;20053;-86
2023/06/15 03:24:25;;;;;;;5.03;3.47;;;;;;;14.46;100.00;100978.47;6252621;28;20159;-86
2023/06/15 03:27:29;;;;;;;9.82;4.10;;;;;;;14.42;100.00;100976.16;6258766;28;20491;-86
2023/06/15 03:30:31;;;;;;;6.32;3.67;;;;;;;14.41;100.00;100974.50;6240646;28;20045;-86
2023/06/15 03:33:33;;;;;;;5.53;3.60;;;;;;;14.39;100.00;100983.41;6251806;28;20041;-86
2023/06/15 03:36:35;;;;;;;4.90;3.97;;;;;;;14.40;100.00;100977.25;6237130;28;20041;-86
2023/06/15 03:39:37;;;;;;;5.63;3.53;;;;;;;14.39;100.00;100979.03;6229007;28;20045;-86
2023/06/15 03:42:40;;;;;;;5.72;4.88;;;;;;;14.33;100.00;100976.94;6238841;28;20563;-85
2023/06/15 03:45:42;;;;;;;6.25;3.75;;;;;;;14.30;100.00;100987.63;6259134;28;20645;-86
2023/06/15 03:48:45;;;;;;;4.65;3.53;;;;;;;14.31;100.00;100983.25;6250288;28;20057;-86
2023/06/15 03:51:46;;;;;;;6.18;3.60;;;;;;;14.30;100.00;100987.63;6257585;28;20175;-86
2023/06/15 03:54:48;;;;;;;6.15;3.85;;;;;;;14.27;100.00;100987.91;6244074;28;20136;-86
2023/06/15 03:57:51;;;;;;;5.30;3.60;;;;;;;14.29;100.00;100993.00;6252295;28;20053;-85
2023/06/15 04:00:56;;;;;;;6.32;4.10;;;;;;;14.36;100.00;100989.72;6244973;28;20041;-86
2023/06/15 04:03:58;;;;;;;5.45;3.90;;;;;;;14.42;100.00;100996.97;6259635;28;20048;-86
2023/06/15 04:07:04;;;;;;;9.32;3.90;;;;;;;14.49;100.00;100996.47;6218298;28;20133;-86
2023/06/15 04:10:08;;;;;;;5.45;3.53;;;;;;;14.52;100.00;100991.78;6223774;28;20056;-86
2023/06/15 04:13:10;;;;;;;5.90;4.05;;;;;;;14.55;100.00;100991.53;6248092;28;20052;-86
2023/06/15 04:16:12;;;;;;;7.22;4.28;;;;;;;14.54;100.00;101000.34;6240510;28;20068;-86
2023/06/15 04:19:15;;;;;;;6.88;4.03;;;;;;;14.57;100.00;101001.84;6258880;28;20049;-86
2023/06/15 04:22:18;;;;;;;4.78;3.72;;;;;;;14.59;100.00;100997.31;6249228;28;20140;-86
2023/06/15 04:25:21;;;;;;;6.10;3.63;;;;;;;14.62;100.00;101007.47;6250486;28;20132;-86
2023/06/15 04:28:24;;;;;;;5.55;4.00;;;;;;;14.67;100.00;101017.50;6245639;28;20096;-86
2023/06/15 04:31:30;;;;;;;4.85;3.78;;;;;;;14.75;100.00;101015.00;6241005;28;20071;-86
2023/06/15 04:34:34;;;;;;;5.88;3.97;;;;;;;14.77;100.00;101013.91;6238992;28;20185;-86
2023/06/15 04:37:37;;;;;;;5.25;3.90;;;;;;;14.83;100.00;101020.34;6243097;28;20048;-86
2023/06/15 04:40:45;;;;;;;5.22;3.85;;;;;;;14.91;100.00;101015.31;6247099;28;20136;-87
2023/06/15 04:43:49;;;;;;;5.50;3.95;;;;;;;14.96;100.00;101014.91;6239837;28;20045;-87
2023/06/15 04:46:51;;;;;;;6.10;4.05;;;;;;;15.05;100.00;101020.13;6247988;28;20779;-87
2023/06/15 04:49:54;;;;;;;7.18;4.00;;;;;;;15.13;100.00;101022.03;6253409;28;20037;-86
2023/06/15 04:52:57;;;;;;;5.32;4.10;;;;;;;15.17;100.00;101018.16;6252807;28;20048;-87
2023/06/15 04:56:00;;;;;;;5.63;3.92;;;;;;;15.22;100.00;101021.16;6252818;28;20029;-87
2023/06/15 04:59:03;;;;;;;6.50;3.75;;;;;;;15.27;100.00;101024.19;6253824;28;20415;-87
2023/06/15 05:02:07;;;;;;;5.85;3.75;;;;;;;15.30;100.00;101025.69;6245188;28;20046;-87
2023/06/15 05:05:12;;;;;;;5.60;4.10;;;;;;;15.34;100.00;101024.47;6238643;28;20566;-87
2023/06/15 05:08:15;;;;;;;6.55;3.80;;;;;;;15.35;100.00;101020.06;6246081;28;20073;-87
2023/06/15 05:11:18;;;;;;;5.43;3.63;;;;;;;15.31;100.00;101031.75;6224697;28;20568;-87
2023/06/15 05:14:20;;;;;;;11.48;4.75;;;;;;;15.27;100.00;101029.41;6255589;28;20081;-87
2023/06/15 05:17:23;;;;;;;13.27;4.78;;;;;;;15.24;100.00;101024.47;6249746;28;20148;-87
2023/06/15 05:20:25;;;;;;;12.00;4.25;;;;;;;15.23;100.00;101024.63;6248983;28;20071;-87
2023/06/15 05:23:27;;;;;;;13.75;5.43;;;;;;;15.24;100.00;101027.06;6257534;28;20067;-87
2023/06/15 05:26:29;;;;;;;11.85;4.70;;;;;;;15.28;100.00;101030.25;6256100;28;20075;-87
2023/06/15 05:29:37;;;;;;;13.52;4.18;;;;;;;15.30;100.00;101025.69;6252236;28;20187;-87
2023/06/15 05:32:42;;;;;;;7.70;4.20;;;;;;;15.34;100.00;101039.28;6250416;28;20135;-87
2023/06/15 05:35:46;;;;;;;12.10;4.47;;;;;;;15.40;100.00;101031.75;6238772;28;20567;-87
2023/06/15 05:38:48;;;;;;;16.90;4.82;;;;;;;15.48;100.00;101031.84;6255291;28;20049;-87
2023/06/15 05:41:50;;;;;;;9.80;4.75;;;;;;;15.52;100.00;101035.00;6228436;28;20045;-87
2023/06/15 05:44:52;;;;;;;11.63;4.28;;;;;;;15.62;100.00;101035.78;6248703;28;20566;-87
2023/06/15 05:47:54;;;;;;;9.05;4.43;;;;;;;15.66;100.00;101037.16;6238074;28;20057;-87
2023/06/15 05:50:56;;;;;;;12.65;4.97;;;;;;;15.75;100.00;101042.50;6254505;28;20708;-87
2023/06/15 05:53:58;;;;;;;7.25;4.45;;;;;;;15.83;100.00;101037.44;6250113;28;20060;-87
2023/06/15 05:57:01;;;;;;;8.32;4.20;;;;;;;15.92;100.00;101044.38;6236211;28;20038;-87
2023/06/15 06:00:04;;;;;;;10.00;4.63;;;;;;;16.03;100.00;101044.22;6230074;28;20073;-87
2023/06/15 06:03:15;;;;;;;7.43;4.55;;;;;;;16.09;100.00;101043.63;6245929;28;20788;-87
2023/06/15 06:06:21;;;;;;;10.38;4.60;;;;;;;16.15;100.00;101039.63;6253449;28;20074;-87
2023/06/15 06:09:25;;;;;;;8.50;4.43;;;;;;;16.19;100.00;101040.16;6246549;28;20053;-87
2023/06/15 06:12:27;;;;;;;8.07;4.53;;;;;;;16.25;100.00;101042.19;6245637;28;20592;-87
2023/06/15 06:15:29;;;;;;;8.68;4.45;;;;;;;16.32;100.00;101044.09;6238069;28;20513;-87
2023/06/15 06:18:31;;;;;;;9.20;4.40;;;;;;;16.39;100.00;101039.06;6218931;28;20049;-87
2023/06/15 06:21:33;;;;;;;6.78;3.78;;;;;;;16.45;100.00;101038.50;6236220;28;20114;-87
2023/06/15 06:24:35;;;;;;;7.05;4.05;;;;;;;16.48;100.00;101030.38;6250886;28;20128;-87
2023/06/15 06:27:39;;;;;;;9.00;3.85;;;;;;;16.53;100.00;101029.94;6247325;28;20077;-87
2023/06/15 06:30:41;;;;;;;7.97;3.88;;;;;;;16.58;100.00;101030.31;6228570;28;20045;-87
2023/06/15 06:33:43;;;;;;;5.57;3.70;;;;;;;16.71;100.00;101032.53;6260991;28;20049;-87
2023/06/15 06:36:45;;;;;;;5.95;3.70;;;;;;;16.86;100.00;101033.69;6239128;28;20037;-87
2023/06/15 06:39:47;;;;;;;6.93;4.47;;;;;;;17.07;100.00;101035.16;6239055;28;20041;-87
2023/06/15 06:42:48;;;;;;;9.35;4.10;;;;;;;17.12;100.00;101028.53;6246704;28;20041;-87
2023/06/15 06:45:50;;;;;;;5.18;3.65;;;;;;;17.21;100.00;101030.22;6236803;28;20053;-87
2023/06/15 06:48:52;;;;;;;10.93;4.85;;;;;;;17.33;100.00;101027.38;6234901;28;20053;-87
2023/06/15 06:51:54;;;;;;;5.07;3.40;;;;;;;17.41;100.00;101028.25;6257442;28;20067;-87
2023/06/15 06:54:56;;;;;;;4.63;3.30;;;;;;;17.48;100.00;101025.84;6237877;28;20495;-87
2023/06/15 06:58:00;;;;;;;4.72;3.55;;;;;;;17.58;100.00;101033.59;6259329;28;20135;-87
2023/06/15 07:01:02;;;;;;;5.85;3.70;;;;;;;17.61;100.00;101036.75;6258631;28;20044;-87
2023/06/15 07:04:05;;;;;;;6.07;3.22;;;;;;;17.66;100.00;101036.25;6246235;28;20125;-87
2023/06/15 07:07:06;;;;;;;9.18;3.45;;;;;;;17.71;100.00;101035.78;6248065;28;20747;-87
2023/06/15 07:10:09;;;;;;;8.90;3.40;;;;;;;17.79;100.00;101034.03;6251445;28;20045;-87
2023/06/15 07:13:11;;;;;;;5.15;3.67;;;;;;;17.85;100.00;101038.69;6236764;28;20613;-87
2023/06/15 07:16:13;;;;;;;6.72;3.35;;;;;;;17.92;100.00;101032.84;6260010;28;20040;-87
2023/06/15 07:19:15;;;;;;;5.38;3.50;;;;;;;17.97;100.00;101035.81;6235862;28;20072;-87
2023/06/15 07:22:17;;;;;;;6.70;3.53;;;;;;;18.02;100.00;101033.53;6250788;28;20050;-87
2023/06/15 07:25:19;;;;;;;9.80;4.05;;;;;;;18.05;100.00;101038.44;6231117;28;20050;-87
2023/06/15 07:28:21;;;;;;;12.05;3.85;;;;;;;18.13;100.00;101024.56;6250487;28;20061;-87
2023/06/15 07:31:23;;;;;;;4.03;3.22;;;;;;;18.20;100.00;101029.00;6248351;28;20040;-87
2023/06/15 07:34:26;;;;;;;10.23;3.78;;;;;;;18.29;100.00;101030.69;6244843;28;20042;-87
2023/06/15 07:37:28;;;;;;;6.43;3.55;;;;;;;18.39;100.00;101032.34;6252187;28;20053;-87
2023/06/15 07:40:30;;;;;;;6.38;3.38;;;;;;;18.45;100.00;101034.31;6251770;28;20040;-87
2023/06/15 07:43:32;;;;;;;4.95;3.70;;;;;;;18.57;100.00;101029.59;6246845;28;20044;-86
2023/06/15 07:46:34;;;;;;;6.72;3.33;;;;;;;18.64;100.00;101033.22;6242129;28;20049;-87
2023/06/15 07:49:36;;;;;;;7.90;3.10;;;;;;;18.63;100.00;101032.41;6257677;28;20040;-87
2023/06/15 07:52:48;;;;;;;4.57;3.00;;;;;;;18.76;100.00;101031.13;6234819;28;20416;-87
2023/06/15 07:55:50;;;;;;;7.90;3.83;;;;;;;18.92;100.00;101037.19;6241850;28;20037;-88
2023/06/15 07:58:52;;;;;;;6.07;3.35;;;;;;;19.02;100.00;101030.97;6254534;28;20463;-87
2023/06/15 08:01:57;;;;;;;8.65;3.92;;;;;;;19.12;100.00;101031.63;6260947;28;20048;-87
2023/06/15 08:04:58;;;;;;;5.18;3.20;;;;;;;19.15;100.00;101026.91;6256963;28;20486;-87
2023/06/15 08:08:00;;;;;;;6.28;3.25;;;;;;;19.17;100.00;101028.53;6240491;28;20041;-87
2023/06/15 08:11:03;;;;;;;7.40;3.53;;;;;;;19.17;100.00;101023.28;6243470;28;20046;-87
2023/06/15 08:14:06;;;;;;;11.75;3.50;;;;;;;19.23;100.00;101022.59;6261259;28;20037;-87
2023/06/15 08:17:08;;;;;;;8.25;4.30;;;;;;;19.31;100.00;101022.59;6247697;28;20510;-87
2023/06/15 08:20:11;;;;;;;6.00;3.13;;;;;;;19.56;100.00;101026.00;6252781;28;20049;-87
2023/06/15 08:23:13;;;;;;;8.38;3.50;;;;;;;19.59;100.00;101021.22;6261066;28;20410;-88
2023/06/15 08:26:15;;;;;;;8.35;3.17;;;;;;;19.67;100.00;101033.53;6242942;28;20554;-88
2023/06/15 08:29:18;;;;;;;5.03;3.28;;;;;;;19.72;100.00;101022.53;6251765;28;20431;-88
2023/06/15 08:32:25;;;;;;;7.97;2.85;;;;;;;19.72;100.00;101020.72;6253782;28;20038;-88
2023/06/15 08:35:27;;;;;;;5.03;3.10;;;;;;;19.81;100.00;101020.72;6240473;28;20380;-88
2023/06/15 08:38:28;;;;;;;6.47;3.28;;;;;;;19.89;100.00;101026.75;6247785;28;20037;-88
2023/06/15 08:41:32;;;;;;;5.75;2.90;;;;;;;20.03;100.00;101027.03;6251565;28;20502;-88
2023/06/15 08:44:35;;;;;;;4.40;3.20;;;;;;;20.07;100.00;101020.44;6256836;28;20598;-88
2023/06/15 08:47:37;;;;;;;8.18;3.45;;;;;;;20.11;100.00;101022.56;6249796;28;20048;-88
2023/06/15 08:50:40;;;;;;;12.45;3.25;;;;;;;20.20;100.00;101026.78;6250509;28;20042;-88
2023/06/15 08:53:47;;;;;;;4.82;3.08;;;;;;;20.21;100.00;101028.41;6255856;28;20083;-88
2023/06/15 08:56:50;;;;;;;5.47;2.90;;;;;;;20.27;90.74;101020.84;6232025;28;20092;-87
2023/06/15 08:59:53;;;;;;;6.75;2.97;;;;;;;20.39;91.32;101024.72;6247807;28;20044;-88
2023/06/15 09:02:59;;;;;;;9.13;3.40;;;;;;;20.48;96.57;101021.03;6248131;28;20033;-88
2023/06/15 09:06:01;;;;;;;6.43;3.28;;;;;;;20.62;93.97;101019.50;6241435;28;20041;-88
2023/06/15 09:09:03;;;;;;;10.35;3.30;;;;;;;20.83;89.62;101022.31;6252609;28;20448;-88
2023/06/15 09:12:06;;;;;;;9.18;3.78;;;;;;;21.01;91.25;101019.38;6246772;28;20590;-88
2023/06/15 09:15:12;;;;;;;8.35;2.83;;;;;;;21.20;88.78;101028.59;6230221;28;20060;-88
2023/06/15 09:18:14;;;;;;;9.43;3.15;;;;;;;21.46;88.45;101016.84;6249356;28;20041;-88
2023/06/15 09:21:21;;;;;;;3.65;2.67;;;;;;;21.89;74.40;101014.41;6246211;28;20403;-88
2023/06/15 09:24:24;;;;;;;4.22;2.42;;;;;;;22.17;63.01;101016.34;6238346;28;20040;-88
2023/06/15 09:27:26;;;;;;;3.75;2.33;;;;;;;22.21;55.22;101007.91;6238187;28;20411;-88
2023/06/15 09:30:44;;;;;;;6.95;2.80;;;;;;;22.11;59.49;101004.69;6246746;28;20188;-88
2023/06/15 09:33:59;;;;;;;8.50;2.67;;;;;;;22.07;57.48;101003.44;6238972;28;20120;-88
2023/06/15 09:37:01;;;;;;;4.68;2.72;;;;;;;22.21;56.28;101007.06;6239000;28;20041;-88
2023/06/15 09:40:06;;;;;;;4.88;2.65;;;;;;;22.67;64.77;101006.75;6239630;28;20048;-88
2023/06/15 09:43:08;;;;;;;5.70;3.17;;;;;;;23.15;58.63;100996.41;6240279;28;20053;-88
2023/06/15 09:46:12;;;;;;;4.88;2.75;;;;;;;23.33;56.92;100988.81;6257916;28;20443;-89
2023/06/15 09:49:23;;;;;;;5.57;2.90;;;;;;;23.41;52.47;100996.56;6246456;28;20037;-89
2023/06/15 09:52:25;;;;;;;5.22;2.65;;;;;;;23.40;53.83;100997.59;6246670;28;20578;-89
2023/06/15 09:55:28;;;;;;;5.32;2.97;;;;;;;23.35;54.02;100994.72;6255755;28;20712;-88
2023/06/15 09:58:29;;;;;;;6.13;2.63;;;;;;;23.27;51.44;101000.13;6252095;28;20045;-88
2023/06/15 10:01:35;;;;;;;5.65;2.80;;;;;;;23.23;51.66;100988.34;6260202;28;20110;-89
2023/06/15 10:04:40;;;;;;;7.13;2.97;;;;;;;23.27;53.47;100996.69;6242191;28;20135;-88
2023/06/15 10:07:48;;;;;;;4.97;3.33;;;;;;;23.38;53.35;100991.69;6246818;28;20029;-89
2023/06/15 10:10:51;;;;;;;6.05;3.00;;;;;;;23.54;48.01;101002.94;6243370;28;20105;-88
2023/06/15 10:13:57;;;;;;;11.05;3.42;;;;;;;23.81;48.98;100996.00;6251340;28;20039;-89
2023/06/15 10:17:04;;;;;;;3.83;3.03;;;;;;;24.18;47.74;100986.78;6253007;28;20048;-89
2023/06/15 10:20:13;;;;;;;3.75;2.83;;;;;;;24.40;47.88;100983.97;6243275;28;20157;-88
2023/06/15 10:23:22;;;;;;;6.70;2.95;;;;;;;24.50;48.33;100982.59;6242357;28;20108;-89
2023/06/15 10:26:42;;;;;;;3.67;2.55;;;;;;;24.74;46.41;100971.59;6244204;28;20038;-88
2023/06/15 10:29:53;;;;;;;4.15;2.70;;;;;;;24.93;50.74;100966.28;6237202;28;20041;-89
2023/06/15 10:33:10;;;;;;;4.55;2.50;;;;;;;24.99;46.31;100972.59;6237093;28;20045;-90
2023/06/15 10:36:36;;;;;;;6.00;2.55;;;;;;;25.07;45.73;100972.41;6237854;28;20049;-90
2023/06/15 10:39:50;;;;;;;5.53;3.30;;;;;;;25.31;44.81;100970.13;6237507;28;20055;-89
2023/06/15 10:42:55;;;;;;;4.38;3.00;;;;;;;25.67;43.37;100976.78;6237814;28;20084;-90
2023/06/15 10:45:57;;;;;;;5.45;2.97;;;;;;;26.02;42.51;100969.28;6236307;28;20038;-89
2023/06/15 10:49:11;;;;;;;3.78;3.00;;;;;;;26.53;44.65;100975.50;6223285;28;20155;-90
2023/06/15 10:52:13;;;;;;;3.97;2.72;;;;;;;26.91;42.89;100966.63;6223867;28;20087;-90
2023/06/15 10:55:16;;;;;;;4.78;2.90;;;;;;;26.95;42.86;100965.97;6247404;28;20071;-89
2023/06/15 10:58:18;;;;;;;3.88;3.03;;;;;;;26.87;40.12;100966.25;6260391;28;20068;-89
2023/06/15 11:01:22;;;;;;;3.70;2.65;;;;;;;26.71;40.18;100961.47;6246491;28;20048;-89
2023/06/15 11:04:30;;;;;;;4.20;2.80;;;;;;;26.76;40.13;100964.31;6238485;28;20045;-89
2023/06/15 11:07:49;;;;;;;5.03;2.92;;;;;;;26.84;40.95;100959.53;6229850;28;20050;-89
2023/06/15 11:10:51;;;;;;;5.20;3.03;;;;;;;27.01;46.99;100961.63;6235647;28;20033;-89
2023/06/15 11:13:55;;;;;;;3.80;2.90;;;;;;;27.32;42.09;100962.56;6245406;28;20179;-89
2023/06/15 11:17:05;;;;;;;6.85;2.90;;;;;;;27.73;41.00;100964.53;6256578;28;20375;-89
2023/06/15 11:20:08;;;;;;;;;;;;;;;27.79;39.82;100965.47;6238101;28;20049;-89
2023/06/15 11:23:19;;;;;;;3.47;3.13;;;;;;;27.80;40.18;100962.59;6245921;28;19925;-89
2023/06/15 11:26:22;;;;;;;5.75;3.20;;;;;;;27.82;40.73;100959.72;6242446;28;20577;-89
2023/06/15 11:29:25;;;;;;;4.28;3.40;;;;;;;28.11;39.14;100955.44;6251488;28;20049;-90
2023/06/15 11:32:27;;;;;;;5.65;2.90;;;;;;;27.95;40.34;100954.25;6238957;28;20048;-90
2023/06/15 11:35:30;;;;;;;6.85;3.25;;;;;;;27.71;38.92;100955.97;6252307;28;20634;-90
2023/06/15 11:38:33;;;;;;;6.32;3.28;;;;;;;27.45;39.71;100960.56;6240975;28;20519;-89
2023/06/15 11:41:35;;;;;;;4.70;3.40;;;;;;;27.27;38.62;100950.75;6254460;28;20446;-88
2023/06/15 11:44:41;;;;;;;3.60;2.92;;;;;;;27.16;40.31;100953.31;6240665;28;20041;-89
2023/06/15 11:47:43;;;;;;;6.28;3.10;;;;;;;26.78;38.11;100946.28;6243998;28;20041;-87
2023/06/15 11:50:45;;;;;;;7.18;3.13;;;;;;;26.54;39.81;100946.09;6251886;28;20041;-89
2023/06/15 11:53:47;;;;;;;5.22;3.30;;;;;;;26.30;39.62;100941.56;6234661;28;20042;-87
2023/06/15 11:56:49;;;;;;;3.72;2.80;;;;;;;26.24;40.42;100940.56;6252603;28;20041;-88
2023/06/15 11:59:51;;;;;;;3.75;3.45;;;;;;;26.23;40.99;100944.25;6244475;28;20072;-88
2023/06/15 12:02:56;;;;;;;3.95;3.13;;;;;;;26.13;40.33;100941.25;6249819;28;20502;-88
2023/06/15 12:05:59;;;;;;;7.57;3.20;;;;;;;26.54;41.20;100938.13;6241679;28;20048;-89
2023/06/15 12:09:03;;;;;;;5.53;3.22;;;;;;;26.95;40.52;100939.38;6249196;28;20041;-87
2023/06/15 12:12:08;;;;;;;5.57;3.65;;;;;;;27.04;39.84;100940.72;6250011;28;20413;-88
2023/06/15 12:15:10;;;;;;;7.20;3.13;;;;;;;27.00;41.00;100930.75;6240918;28;20056;-88
2023/06/15 12:18:12;;;;;;;4.07;3.08;;;;;;;26.91;40.72;100932.09;6247018;28;20037;-88
2023/06/15 12:21:17;;;;;;;6.60;3.53;;;;;;;26.77;40.25;100928.75;6238063;28;20345;-87
2023/06/15 12:24:23;;;;;;;4.43;3.30;;;;;;;26.66;40.47;100924.97;6260710;28;20057;-87
2023/06/15 12:27:26;;;;;;;4.85;3.55;;;;;;;26.56;40.65;100927.31;6239108;28;20420;-87
2023/06/15 12:30:28;;;;;;;7.22;3.28;;;;;;;26.69;41.07;100921.88;6259784;28;20048;-88
2023/06/15 12:33:34;;;;;;;5.32;3.50;;;;;;;26.98;40.04;100916.88;6262758;28;20049;-87
2023/06/15 12:36:38;;;;;;;6.40;3.33;;;;;;;27.11;38.83;100921.25;6254130;28;20045;-87
2023/06/15 12:39:40;;;;;;;5.95;3.25;;;;;;;27.19;42.15;100913.81;6235538;28;20053;-87
2023/06/15 12:42:42;;;;;;;2.92;2.65;;;;;;;27.18;39.83;100914.00;6246757;28;20041;-88
2023/06/15 12:45:44;;;;;;;4.88;3.15;;;;;;;27.06;39.71;100908.63;6258954;28;20565;-88
2023/06/15 12:48:46;;;;;;;5.80;3.40;;;;;;;27.37;40.50;100909.53;6230137;28;20037;-88
2023/06/15 12:51:49;;;;;;;8.82;3.38;;;;;;;27.98;39.89;100905.88;6239077;28;20041;-88
2023/06/15 12:54:53;;;;;;;5.68;3.40;;;;;;;28.35;36.86;100895.09;6238352;28;20045;-87
2023/06/15 12:57:55;;;;;;;5.45;3.10;;;;;;;28.75;35.82;100891.75;6237772;28;20087;-89
2023/06/15 13:00:57;;;;;;;4.07;2.88;;;;;;;29.05;36.74;100891.59;6239073;28;20041;-88
2023/06/15 13:03:59;;;;;;;4.72;3.17;;;;;;;28.95;38.25;100889.53;6235571;28;20069;-88
2023/06/15 13:07:01;;;;;;;6.47;3.65;;;;;;;28.88;35.20;100893.38;6244333;28;20041;-87
2023/06/15 13:10:05;;;;;;;6.03;3.90;;;;;;;28.61;36.87;100895.69;6236865;28;20496;-87
2023/06/15 13:13:08;;;;;;;6.35;2.97;;;;;;;27.99;38.63;100893.38;6248198;28;20056;-88
2023/06/15 13:16:10;;;;;;;5.05;3.40;;;;;;;27.41;39.52;100895.56;6249737;28;20510;-89
2023/06/15 13:19:12;;;;;;;4.85;3.30;;;;;;;26.91;38.93;100881.63;6241041;28;20836;-87
2023/06/15 13:22:14;;;;;;;7.35;3.33;;;;;;;26.50;42.48;100883.78;6239547;28;20052;-88
2023/06/15 13:25:20;;;;;;;3.85;3.00;;;;;;;26.23;42.29;100887.69;6245419;28;20045;-87
2023/06/15 13:28:22;;;;;;;4.47;3.47;;;;;;;26.00;42.72;100883.78;6217089;28;20354;-88
2023/06/15 13:31:24;;;;;;;5.55;3.72;;;;;;;26.23;42.73;100882.41;6249422;28;20044;-88
2023/06/15 13:34:26;;;;;;;6.70;3.42;;;;;;;27.09;41.54;100878.94;6247972;28;20037;-88
2023/06/15 13:37:27;;;;;;;6.32;3.47;;;;;;;28.04;38.64;100880.22;6246887;28;20037;-88
2023/06/15 13:40:30;;;;;;;7.57;2.90;;;;;;;28.35;37.30;100866.59;6237902;28;20049;-88
2023/06/15 13:43:32;;;;;;;6.60;3.03;;;;;;;29.39;37.65;100871.25;6237235;28;20041;-89
2023/06/15 13:46:36;;;;;;;5.90;3.03;;;;;;;30.03;35.13;100871.03;6248356;28;20489;-89
2023/06/15 13:49:38;;;;;;;4.50;3.38;;;;;;;29.87;35.89;100871.84;6236876;28;20041;-88
2023/06/15 13:52:42;;;;;;;3.42;3.10;;;;;;;29.04;36.03;100875.81;6244618;28;20093;-88
2023/06/15 13:55:44;;;;;;;4.03;3.22;;;;;;;28.21;35.76;100869.72;6251292;28;20187;-88
2023/06/15 13:58:48;;;;;;;5.05;3.22;;;;;;;27.53;38.35;100877.03;6236317;28;20139;-87
2023/06/15 14:01:50;;;;;;;6.18;3.63;;;;;;;27.14;39.65;100871.13;6242103;28;20115;-89
2023/06/15 14:04:55;;;;;;;5.55;3.20;;;;;;;26.85;39.04;100864.69;6250073;28;20114;-88
2023/06/15 14:07:57;;;;;;;3.30;3.00;;;;;;;26.69;39.40;100870.59;6226279;28;20415;-88